• Join FlightAware (Why Join?)
  • Login
  • US Flag 
12:52AM EST


 

Airport Tracker/Info


-or-


 

Live Flight TrackerFlight Track Log ✈ DAL3995 ✈ 27-Dec-2013 ✈ KATL - KGSP

Flight Track Log - Related Links

Times and Time Zones

All times are in EST time to prevent confusion due to time zone crossing. See the DAL3995 flight status page for this flight to view local times or setup timezone preferences in your user account.

Time Position Orientation Groundspeed Altitude Reporting Facility
EST Latitude Longitude Course Direction KTS MPH feet Rate Location/Type
04:48PM 33.6331 -84.3881 57° Northeast 377 434 2,500  Level Atlanta Center
04:49PM 33.6333 -84.3083 90° East 295 339 4,300 2,400 Climbing Atlanta Center
04:50PM 33.6333 -84.2183 90° East 263 303 7,400 2,940 Climbing Atlanta Center
04:51PM 33.6336 -84.1211 90° East 315 362 10,200 2,520 Climbing Atlanta Center
04:52PM 33.6817 -84.0414 54° Northeast 294 338 12,500 2,160 Climbing Atlanta Center
04:53PM 33.7419 -83.9614 48° Northeast 304 350 14,600 1,200 Climbing Atlanta Center
04:54PM 33.9032 -83.9714 57° Northeast  Level Estimated
04:54PM 33.8067 -83.8664 51° Northeast 345 397 15,000  Level Atlanta Center
04:55PM 33.8711 -83.7736 50° Northeast 384 442 15,000  Level Atlanta Center
04:56PM 33.9461 -83.6608 51° Northeast 415 478 15,000  Level Atlanta Center
04:57PM 34.0208 -83.5475 51° Northeast 424 488 15,000  Level Atlanta Center
04:58PM 34.0953 -83.4367 51° Northeast 424 488 15,000  Level Atlanta Center
04:59PM 34.1719 -83.3233 51° Northeast 429 494 15,000  Level Atlanta Center
05:00PM 34.2464 -83.2094 52° Northeast 428 493 15,000  Level Atlanta Center
05:01PM 34.3208 -83.0981 51° Northeast 428 493 15,000 -180 Level Atlanta Center
05:02PM 34.3950 -82.9814 52° Northeast 428 493 14,700 -1,200 Descending Atlanta Center
05:03PM 34.4711 -82.8672 51° Northeast 422 486 12,600 -2,160 Descending Atlanta Center
05:04PM 34.5308 -82.7831 49° Northeast 375 432 10,400 -1,980 Descending Atlanta Center
05:05PM 34.5781 -82.7017 55° Northeast 335 386 8,700 -1,740 Descending Atlanta Center
05:06PM 34.6125 -82.6153 64° Northeast 298 343 7,000 -1,380 Descending Atlanta Center
05:07PM 34.6492 -82.5339 61° Northeast 285 328 6,000 -1,200 Descending Atlanta Center
05:08PM 34.6814 -82.4550 64° Northeast 275 316 4,600 -1,500 Descending Atlanta Center
05:09PM 34.7139 -82.3761 63° Northeast 258 297 3,000 -840 Descending Atlanta Center
05:10PM 34.7589 -82.3247 43° Northeast 235 270 3,000 -120 Level Atlanta Center
05:11PM 34.8044 -82.2908 31° Northeast 201 231 2,800 -240 Descending Atlanta Center
05:13PM 34.8833 -82.2167 59° Northeast  Level FlightAware Approximate
05:20PM 34.8957 -82.2189 59° Northeast  Level Estimated
05:21PM 34.8957 -82.2189 59° Northeast  Level Estimated